Pink Lady — WDE7680 — position and weather

sailwx.info

Track history (hours):
 
Tides and Currents Weather Stations Pressure Air Temp Water Temp Dewpoint Dewpoint Depression Visibility Wind Speed Wind Dir Waves Ship Positions

Pink Lady

Owner: Three Captains Cruises, Brooklyn, NY. More information available from US FCC via Universal Licensing System and Coast Guard Vessel Documentation Center.

Last reported at 2017-Nov-12 04:55 UTC. Time now 2017-Nov-22 21:55 UTC.
Position N 40°35' W 073°56'.
Warning: this ship's position is 10 days out of date.

Type: Ship. MMSI: 367396230.

Date/timePositionNaut miles runAvg speedWind from/ knotsBaromVisibWave heightAir tempDewpointWater temp
2017-Nov-12 04:55N 40°35' W 073°56'2 5.2
2017-Nov-12 04:28N 40°35' W 073°53'2 4.5
2017-Nov-12 04:00N 40°37' W 073°53'2 4.2
2017-Nov-12 03:29N 40°35' W 073°53'2 4.8
2017-Nov-12 03:00N 40°35' W 073°56'1 2.0
2017-Nov-12 02:30N 40°34' W 073°56'4 7.7
2017-Nov-12 01:59N 40°35' W 074°02'4 6.4
2017-Nov-12 01:18N 40°35' W 073°56'  
2017-Nov-05 06:44N 40°35' W 073°56'2 7.8
2017-Nov-05 06:27N 40°34' W 073°53'2 4.8
2017-Nov-05 05:58N 40°37' W 073°53'0 0.7
2017-Nov-05 05:30N 40°36' W 073°53'2 3.5
2017-Nov-05 05:00N 40°35' W 073°53'2 3.1
2017-Nov-05 04:30N 40°34' W 073°55'  
Track history (hours):
 
Tides and Currents Weather Stations Pressure Air Temp Water Temp Dewpoint Dewpoint Depression Visibility Wind Speed Wind Dir Waves Ship Positions

Pink Lady

Owner: Three Captains Cruises, Brooklyn, NY. More information available from US FCC via Universal Licensing System and Coast Guard Vessel Documentation Center.

Last reported at 2017-Nov-12 04:55 UTC. Time now 2017-Nov-22 21:55 UTC.
Position N 40°35' W 073°56'.
Warning: this ship's position is 10 days out of date.

Type: Ship. MMSI: 367396230.

Date/timePositionNaut miles runAvg speedWind from/ knotsBaromVisibWave heightAir tempDewpointWater temp
2017-Nov-12 04:55N 40°35' W 073°56'2 5.2
2017-Nov-12 04:28N 40°35' W 073°53'2 4.5
2017-Nov-12 04:00N 40°37' W 073°53'2 4.2
2017-Nov-12 03:29N 40°35' W 073°53'2 4.8
2017-Nov-12 03:00N 40°35' W 073°56'1 2.0
2017-Nov-12 02:30N 40°34' W 073°56'4 7.7
2017-Nov-12 01:59N 40°35' W 074°02'4 6.4
2017-Nov-12 01:18N 40°35' W 073°56'  
2017-Nov-05 06:44N 40°35' W 073°56'2 7.8
2017-Nov-05 06:27N 40°34' W 073°53'2 4.8
2017-Nov-05 05:58N 40°37' W 073°53'0 0.7
2017-Nov-05 05:30N 40°36' W 073°53'2 3.5
2017-Nov-05 05:00N 40°35' W 073°53'2 3.1
2017-Nov-05 04:30N 40°34' W 073°55'  

Dump ship's entire track history